createdAt,value
2023-04-19T00:01:15.268Z,11.56
2023-04-19T00:03:43.807Z,11.66
2023-04-19T00:06:15.280Z,11.73
2023-04-19T00:08:43.752Z,11.51
2023-04-19T00:11:13.516Z,11.80
2023-04-19T00:13:41.798Z,11.82
2023-04-19T00:16:10.148Z,11.90
2023-04-19T00:18:38.990Z,11.74
2023-04-19T00:21:07.741Z,11.80
2023-04-19T00:23:36.536Z,11.88
2023-04-19T00:26:05.278Z,11.80
2023-04-19T00:28:35.422Z,11.70
2023-04-19T00:31:03.905Z,11.77
2023-04-19T00:33:32.237Z,11.73
2023-04-19T00:36:00.565Z,11.80
2023-04-19T00:38:28.894Z,11.65
2023-04-19T00:40:57.172Z,11.63
2023-04-19T00:43:25.490Z,11.65
2023-04-19T00:45:55.431Z,11.57
2023-04-19T00:48:23.987Z,11.57
2023-04-19T00:50:52.642Z,11.49
2023-04-19T00:53:20.953Z,11.57
2023-04-19T00:55:51.196Z,11.44
2023-04-19T00:58:19.489Z,11.51
2023-04-19T01:00:47.711Z,11.50
2023-04-19T01:03:18.745Z,11.31
2023-04-19T01:05:47.260Z,11.23
2023-04-19T01:08:16.141Z,11.30
2023-04-19T01:10:44.398Z,11.32
2023-04-19T01:13:12.849Z,11.33
2023-04-19T01:15:41.396Z,11.34
2023-04-19T01:18:11.538Z,11.44
2023-04-19T01:20:41.365Z,11.41
2023-04-19T01:23:12.610Z,11.37
2023-04-19T01:25:41.002Z,11.23
2023-04-19T01:28:09.336Z,10.93
2023-04-19T01:30:38.521Z,11.46
2023-04-19T01:33:06.727Z,11.49
2023-04-19T01:35:35.139Z,11.47
2023-04-19T01:38:03.426Z,11.32
2023-04-19T01:40:33.202Z,11.45
2023-04-19T01:43:01.539Z,11.40
2023-04-19T01:45:29.793Z,11.33
2023-04-19T01:47:59.246Z,11.33
2023-04-19T01:50:27.556Z,11.30
2023-04-19T01:52:55.878Z,11.19
2023-04-19T01:55:24.466Z,11.19
2023-04-19T01:57:55.076Z,11.26
2023-04-19T02:00:23.884Z,11.26
2023-04-19T02:02:52.325Z,11.29
2023-04-19T02:05:21.245Z,11.29
2023-04-19T02:07:49.546Z,11.25
2023-04-19T02:10:17.949Z,11.26
2023-04-19T02:12:46.199Z,11.21
2023-04-19T02:15:15.986Z,11.42
2023-04-19T02:17:44.260Z,11.14
2023-04-19T02:20:12.867Z,11.20
2023-04-19T02:22:41.181Z,11.12
2023-04-19T02:25:10.144Z,11.00
2023-04-19T02:27:38.533Z,10.99
2023-04-19T02:30:08.407Z,10.93
2023-04-19T02:32:38.205Z,10.82
2023-04-19T02:35:07.180Z,10.73
2023-04-19T02:37:35.418Z,10.87
2023-04-19T02:40:05.378Z,10.69
2023-04-19T02:42:33.741Z,10.72
2023-04-19T02:45:02.061Z,10.76
2023-04-19T02:47:30.532Z,10.63
2023-04-19T02:50:01.350Z,10.66
2023-04-19T02:52:29.674Z,10.69
2023-04-19T02:54:57.967Z,10.66
2023-04-19T02:57:26.289Z,10.60
2023-04-19T02:59:54.625Z,10.49
2023-04-19T03:02:23.499Z,10.49
2023-04-19T03:04:53.166Z,10.57
2023-04-19T03:07:22.968Z,10.54
2023-04-19T03:09:51.224Z,10.59
2023-04-19T03:12:19.527Z,10.48
2023-04-19T03:14:47.961Z,10.54
2023-04-19T03:17:16.671Z,10.51
2023-04-19T03:19:45.050Z,10.47
2023-04-19T03:22:13.391Z,10.36
2023-04-19T03:24:43.132Z,10.50
2023-04-19T03:27:11.428Z,10.50
2023-04-19T03:29:39.735Z,10.18
2023-04-19T03:32:08.461Z,10.38
2023-04-19T03:34:36.820Z,10.33
2023-04-19T03:37:05.110Z,10.36
2023-04-19T03:39:33.954Z,10.24
2023-04-19T03:42:03.965Z,10.16
2023-04-19T03:44:34.123Z,10.31
2023-04-19T03:47:02.342Z,10.29
2023-04-19T03:49:30.682Z,10.22
2023-04-19T03:51:58.913Z,10.19
2023-04-19T03:54:27.269Z,10.13
2023-04-19T03:56:55.462Z,10.09
2023-04-19T03:59:25.248Z,10.09
2023-04-19T04:01:53.678Z,9.91
2023-04-19T04:04:22.471Z,9.95
2023-04-19T04:06:51.319Z,9.90
2023-04-19T04:09:19.766Z,9.95
2023-04-19T04:11:48.007Z,9.82
2023-04-19T04:14:16.643Z,9.78
2023-04-19T04:16:46.730Z,9.80
2023-04-19T04:19:15.457Z,9.78
2023-04-19T04:21:43.988Z,9.73
2023-04-19T04:24:12.611Z,9.68
2023-04-19T04:26:41.205Z,9.68
2023-04-19T04:29:10.689Z,9.77
2023-04-19T04:31:39.500Z,9.89
2023-04-19T04:34:10.113Z,9.84
2023-04-19T04:36:38.676Z,9.66
2023-04-19T04:39:10.473Z,9.81
2023-04-19T04:41:42.286Z,10.01
2023-04-19T04:44:13.181Z,10.04
2023-04-19T04:46:41.487Z,9.92
2023-04-19T04:49:11.204Z,10.19
2023-04-19T04:51:39.474Z,10.25
2023-04-19T04:54:07.802Z,10.36
2023-04-19T04:56:36.255Z,10.30
2023-04-19T04:59:04.642Z,10.45
2023-04-19T05:01:33.335Z,10.45
2023-04-19T05:04:02.209Z,10.29
2023-04-19T05:06:32.182Z,10.67
2023-04-19T05:09:00.560Z,10.67
2023-04-19T05:11:29.198Z,10.76
2023-04-19T05:13:57.576Z,10.84
2023-04-19T05:16:25.957Z,10.87
2023-04-19T05:18:55.731Z,10.85
2023-04-19T05:21:24.593Z,10.89
2023-04-19T05:23:54.905Z,11.06
2023-04-19T05:26:23.266Z,11.24
2023-04-19T05:28:51.676Z,11.36
2023-04-19T05:31:21.337Z,11.57
2023-04-19T05:33:49.970Z,11.45
2023-04-19T05:36:19.321Z,11.93
2023-04-19T05:38:47.883Z,12.10
2023-04-19T05:41:17.972Z,12.30
2023-04-19T05:43:46.327Z,12.52
2023-04-19T05:46:15.005Z,12.67
2023-04-19T05:48:43.424Z,12.86
2023-04-19T05:51:11.884Z,13.08
2023-04-19T05:53:40.159Z,13.28
2023-04-19T05:56:08.975Z,13.43
2023-04-19T05:58:38.833Z,13.49
2023-04-19T06:01:07.735Z,13.38
2023-04-19T06:03:36.260Z,13.56
2023-04-19T06:06:05.095Z,13.56
2023-04-19T06:08:33.345Z,13.57
2023-04-19T06:11:08.277Z,13.56
2023-04-19T06:13:51.347Z,13.57
2023-04-19T06:16:19.694Z,13.62
2023-04-19T06:18:48.145Z,13.68
2023-04-19T06:21:16.984Z,13.59
2023-04-19T06:23:45.280Z,13.82
2023-04-19T06:26:13.612Z,13.80
2023-04-19T06:28:41.878Z,13.91
2023-04-19T06:31:12.463Z,13.88
2023-04-19T06:33:40.838Z,13.84
2023-04-19T06:36:10.793Z,13.86
2023-04-19T06:38:39.369Z,13.92
2023-04-19T06:41:07.697Z,13.83
2023-04-19T06:43:36.267Z,14.15
2023-04-19T06:46:06.501Z,14.30
2023-04-19T06:48:37.204Z,14.35
2023-04-19T06:51:05.866Z,14.39
2023-04-19T06:53:34.927Z,14.40
2023-04-19T06:56:04.522Z,14.51
2023-04-19T06:58:34.876Z,13.86
2023-04-19T07:01:05.577Z,14.57
2023-04-19T07:03:34.242Z,14.93
2023-04-19T07:06:04.449Z,14.98
2023-04-19T07:08:46.443Z,15.11
2023-04-19T07:11:17.403Z,15.26
2023-04-19T07:13:45.708Z,15.35
2023-04-19T07:16:15.034Z,15.43
2023-04-19T07:18:44.066Z,15.37
2023-04-19T07:21:14.215Z,15.39
2023-04-19T07:23:42.433Z,15.63
2023-04-19T07:26:10.940Z,15.69
2023-04-19T07:28:41.385Z,15.75
2023-04-19T07:31:09.810Z,15.86
2023-04-19T07:33:38.198Z,15.84
2023-04-19T07:36:06.921Z,16.18
2023-04-19T07:38:36.859Z,16.38
2023-04-19T07:41:05.515Z,16.15
2023-04-19T07:43:34.145Z,16.06
2023-04-19T07:46:02.658Z,15.39
2023-04-19T07:48:31.178Z,15.08
2023-04-19T07:51:09.167Z,15.13
2023-04-19T07:53:40.546Z,15.29
2023-04-19T07:56:11.430Z,14.41
2023-04-19T07:58:41.571Z,15.28
2023-04-19T08:01:10.180Z,15.27
2023-04-19T08:03:39.106Z,15.26
2023-04-19T08:06:09.198Z,14.67
2023-04-19T08:08:39.107Z,14.81
2023-04-19T08:11:07.869Z,15.27
2023-04-19T08:13:36.197Z,15.54
2023-04-19T08:16:36.983Z,15.72
2023-04-19T08:18:52.830Z,15.74
2023-04-19T08:21:26.036Z,15.64
2023-04-19T08:24:01.112Z,15.54
2023-04-19T08:26:29.515Z,15.74
2023-04-19T08:28:58.376Z,15.85
2023-04-19T08:31:27.269Z,16.00
2023-04-19T08:33:56.020Z,15.95
2023-04-19T08:36:37.098Z,15.93
2023-04-19T08:39:24.692Z,16.24
2023-04-19T08:42:12.576Z,16.42
2023-04-19T08:45:22.593Z,16.62
2023-04-19T08:50:31.278Z,17.02
2023-04-19T08:55:38.163Z,16.96
2023-04-19T08:58:15.289Z,16.98
2023-04-19T09:00:51.790Z,17.13
2023-04-19T09:03:20.497Z,17.05
2023-04-19T09:05:49.086Z,16.81
2023-04-19T09:08:26.650Z,16.55
2023-04-19T09:10:58.832Z,16.38
2023-04-19T09:13:27.952Z,16.23
2023-04-19T09:15:57.385Z,16.18
2023-04-19T09:18:27.316Z,16.50
2023-04-19T09:20:58.647Z,16.76
2023-04-19T09:23:29.186Z,16.72
2023-04-19T09:28:33.547Z,16.55
2023-04-19T09:31:33.337Z,16.80
2023-04-19T09:34:15.714Z,16.63
2023-04-19T09:36:44.541Z,16.34
2023-04-19T09:39:14.915Z,16.27
2023-04-19T09:41:54.346Z,16.20
2023-04-19T09:46:54.228Z,16.11
2023-04-19T09:49:41.171Z,16.01
2023-04-19T09:52:16.579Z,16.35
2023-04-19T09:54:46.902Z,16.34
2023-04-19T09:57:17.139Z,16.37
2023-04-19T09:59:45.643Z,16.44
2023-04-19T10:02:15.773Z,16.35
2023-04-19T10:07:30.293Z,16.21
2023-04-19T10:15:08.183Z,15.75
2023-04-19T10:17:36.757Z,15.72
2023-04-19T10:20:09.591Z,15.63
2023-04-19T10:22:39.118Z,15.75
2023-04-19T10:25:15.909Z,15.64
2023-04-19T10:27:49.142Z,15.59
2023-04-19T10:30:22.058Z,15.51
2023-04-19T10:32:56.598Z,15.15
2023-04-19T10:35:26.066Z,14.82
2023-04-19T10:38:09.977Z,15.33
2023-04-19T10:41:04.642Z,15.06
2023-04-19T10:43:35.837Z,14.45
2023-04-19T10:46:08.890Z,14.00
2023-04-19T10:48:44.273Z,13.30
2023-04-19T10:51:17.208Z,12.77
2023-04-19T10:53:53.683Z,12.21
2023-04-19T10:56:24.371Z,12.46
2023-04-19T10:59:24.868Z,12.38
2023-04-19T11:01:55.582Z,12.04
2023-04-19T11:04:28.514Z,12.23
2023-04-19T11:07:02.921Z,12.17
2023-04-19T11:09:34.755Z,11.86
2023-04-19T11:12:05.335Z,11.73
2023-04-19T11:14:38.282Z,11.49
2023-04-19T11:17:17.313Z,11.50
2023-04-19T11:19:46.981Z,11.64
2023-04-19T11:22:15.317Z,11.65
2023-04-19T11:24:48.561Z,11.47
2023-04-19T11:27:17.249Z,12.03
2023-04-19T11:29:47.834Z,11.61
2023-04-19T11:32:16.691Z,12.27
2023-04-19T11:34:45.168Z,12.25
2023-04-19T11:37:13.559Z,11.75
2023-04-19T11:39:48.710Z,12.29
2023-04-19T11:42:21.548Z,12.10
2023-04-19T11:44:54.397Z,12.06
2023-04-19T11:47:23.241Z,11.95
2023-04-19T11:49:52.324Z,12.22
2023-04-19T11:52:25.600Z,12.15
2023-04-19T11:54:54.411Z,12.36
2023-04-19T11:57:30.891Z,12.49
2023-04-19T12:00:12.488Z,12.73
2023-04-19T12:02:42.561Z,12.60
2023-04-19T12:05:13.107Z,12.98
2023-04-19T12:08:00.896Z,13.05
2023-04-19T12:10:29.396Z,13.35
2023-04-19T12:12:57.786Z,13.64
2023-04-19T12:15:43.168Z,13.62
2023-04-19T12:18:11.909Z,13.72
2023-04-19T12:20:46.875Z,13.88
2023-04-19T12:23:16.015Z,14.20
2023-04-19T12:25:46.290Z,14.54
2023-04-19T12:28:16.121Z,14.70
2023-04-19T12:30:48.058Z,14.74
2023-04-19T12:33:16.541Z,14.50
2023-04-19T12:35:45.208Z,14.42
2023-04-19T12:38:13.747Z,14.08
2023-04-19T12:40:42.090Z,14.29
2023-04-19T12:43:10.447Z,14.31
2023-04-19T12:45:38.730Z,14.41
2023-04-19T12:48:09.129Z,14.48
2023-04-19T12:50:37.464Z,14.43
2023-04-19T12:53:07.083Z,14.64
2023-04-19T12:55:35.382Z,14.68
2023-04-19T12:58:03.742Z,14.49
2023-04-19T13:00:32.062Z,14.88
2023-04-19T13:03:00.555Z,14.99
2023-04-19T13:05:30.704Z,15.07
2023-04-19T13:07:59.150Z,15.05
2023-04-19T13:10:27.927Z,14.96
2023-04-19T13:12:56.516Z,14.92
2023-04-19T13:15:25.104Z,14.81
2023-04-19T13:17:53.407Z,14.59
2023-04-19T13:20:23.430Z,14.87
2023-04-19T13:22:53.224Z,14.92
2023-04-19T13:25:22.424Z,14.95
2023-04-19T13:27:51.824Z,14.99
2023-04-19T13:30:20.141Z,15.01
2023-04-19T13:32:48.750Z,15.19
2023-04-19T13:35:17.410Z,15.49
2023-04-19T13:37:47.456Z,15.59
2023-04-19T13:40:19.705Z,15.68
2023-04-19T13:42:48.786Z,15.81
2023-04-19T13:45:17.168Z,15.81
2023-04-19T13:47:45.750Z,15.80
2023-04-19T13:50:15.264Z,15.83
2023-04-19T13:52:43.709Z,15.82
2023-04-19T13:55:11.937Z,15.71
2023-04-19T13:57:41.792Z,15.76
2023-04-19T14:00:11.443Z,15.87
2023-04-19T14:02:40.137Z,15.82
2023-04-19T14:05:09.366Z,15.84
2023-04-19T14:07:37.950Z,15.67
2023-04-19T14:10:07.386Z,15.87
2023-04-19T14:12:35.729Z,16.04
2023-04-19T14:15:07.038Z,16.26
2023-04-19T14:17:36.322Z,15.75
2023-04-19T14:20:07.254Z,16.22
2023-04-19T14:22:36.553Z,16.67
2023-04-19T14:25:05.024Z,17.15
2023-04-19T14:27:34.025Z,17.24
2023-04-19T14:30:02.493Z,17.40
2023-04-19T14:32:32.323Z,17.47
2023-04-19T14:35:02.066Z,17.21
2023-04-19T14:37:30.789Z,16.98
2023-04-19T14:39:59.141Z,16.67
2023-04-19T14:42:27.737Z,16.34
2023-04-19T14:44:55.962Z,15.81
2023-04-19T14:47:24.371Z,15.51
2023-04-19T14:49:54.239Z,15.22
2023-04-19T14:52:22.652Z,15.09
2023-04-19T14:54:51.002Z,14.80
2023-04-19T14:57:20.503Z,14.76
2023-04-19T14:59:48.909Z,14.86
2023-04-19T15:02:17.259Z,15.06
2023-04-19T15:04:45.820Z,14.96
2023-04-19T15:07:15.740Z,15.06
2023-04-19T15:09:44.123Z,15.02
2023-04-19T15:12:12.467Z,14.97
2023-04-19T15:14:41.305Z,14.79
2023-04-19T15:17:09.934Z,14.63
2023-04-19T15:19:40.009Z,14.47
2023-04-19T15:22:08.359Z,14.26
2023-04-19T15:24:38.830Z,13.98
2023-04-19T15:27:07.124Z,14.07
2023-04-19T15:29:36.508Z,13.88
2023-04-19T15:32:04.902Z,13.64
2023-04-19T15:34:33.541Z,13.41
2023-04-19T15:37:02.627Z,12.99
2023-04-19T15:39:30.907Z,12.76
2023-04-19T15:42:02.188Z,12.74
2023-04-19T15:44:30.915Z,12.54
2023-04-19T15:46:59.560Z,12.33
2023-04-19T15:49:27.903Z,12.10
2023-04-19T15:51:56.137Z,11.73
2023-04-19T15:54:24.806Z,11.58
2023-04-19T15:56:53.095Z,11.65
2023-04-19T15:59:22.934Z,11.51
2023-04-19T16:01:51.344Z,11.45
2023-04-19T16:04:20.023Z,11.79
2023-04-19T16:06:48.458Z,11.62
2023-04-19T16:09:17.329Z,11.45
2023-04-19T16:11:46.430Z,11.66
2023-04-19T16:14:17.600Z,11.39
2023-04-19T16:17:23.608Z,11.61
2023-04-19T16:20:08.159Z,11.53
2023-04-19T16:25:52.995Z,11.43
2023-04-19T16:28:22.641Z,11.45
2023-04-19T16:30:51.280Z,11.32
2023-04-19T16:33:21.081Z,11.29
2023-04-19T16:35:49.630Z,11.09
2023-04-19T16:38:18.074Z,11.22
2023-04-19T16:40:48.762Z,11.28
2023-04-19T16:43:17.318Z,10.91
2023-04-19T16:45:45.915Z,11.30
2023-04-19T16:48:14.340Z,11.31
2023-04-19T16:50:44.127Z,11.34
2023-04-19T16:53:12.819Z,11.28
2023-04-19T16:55:41.110Z,11.21
2023-04-19T16:58:09.362Z,11.12
2023-04-19T17:00:37.666Z,11.12
2023-04-19T17:03:06.126Z,11.14
2023-04-19T17:05:34.519Z,11.09
2023-04-19T17:08:07.609Z,11.08
2023-04-19T17:10:37.042Z,10.96
2023-04-19T17:13:05.921Z,10.26
2023-04-19T17:15:42.409Z,10.72
2023-04-19T17:18:11.772Z,10.86
2023-04-19T17:20:42.549Z,10.65
2023-04-19T17:23:24.813Z,10.83
2023-04-19T17:26:24.062Z,10.80
2023-04-19T17:29:02.895Z,10.03
2023-04-19T17:31:32.727Z,10.77
2023-04-19T17:34:02.318Z,10.58
2023-04-19T17:36:33.974Z,10.35
2023-04-19T17:39:05.918Z,10.72
2023-04-19T17:41:36.759Z,10.71
2023-04-19T17:44:09.010Z,10.67
2023-04-19T17:46:48.451Z,10.62
2023-04-19T17:49:35.320Z,10.65
2023-04-19T17:52:10.306Z,10.49
2023-04-19T17:54:40.589Z,10.42
2023-04-19T17:57:09.498Z,10.44
2023-04-19T17:59:38.306Z,10.50
2023-04-19T18:02:10.513Z,10.38
2023-04-19T18:04:44.913Z,9.73
2023-04-19T18:07:16.324Z,10.31
2023-04-19T18:10:20.229Z,10.18
2023-04-19T18:12:49.063Z,10.14
2023-04-19T18:15:18.080Z,9.94
2023-04-19T18:17:46.837Z,10.09
2023-04-19T18:20:16.447Z,10.05
2023-04-19T18:22:45.103Z,9.98
2023-04-19T18:25:15.570Z,9.95
2023-04-19T18:27:44.599Z,9.94
2023-04-19T18:30:13.945Z,8.91
2023-04-19T18:32:42.688Z,9.85
2023-04-19T18:35:13.134Z,9.83
2023-04-19T18:37:41.991Z,9.78
2023-04-19T18:40:12.454Z,9.78
2023-04-19T18:42:43.105Z,9.69
2023-04-19T18:45:12.758Z,9.52
2023-04-19T18:47:41.277Z,9.83
2023-04-19T18:50:12.353Z,9.68
2023-04-19T18:53:02.901Z,9.86
2023-04-19T18:55:35.328Z,9.82
2023-04-19T18:58:06.378Z,9.85
2023-04-19T19:00:38.053Z,9.80
2023-04-19T19:05:37.010Z,9.82
2023-04-19T19:08:10.465Z,9.93
2023-04-19T19:11:07.086Z,9.86
2023-04-19T19:13:30.042Z,9.92
2023-04-19T19:15:59.025Z,9.89
2023-04-19T19:18:29.534Z,9.85
2023-04-19T19:21:00.636Z,9.86
2023-04-19T19:26:03.076Z,9.82
2023-04-19T19:28:34.399Z,9.82
2023-04-19T19:31:11.335Z,9.72
2023-04-19T19:33:40.784Z,9.57
2023-04-19T19:36:09.874Z,9.67
2023-04-19T19:38:39.218Z,9.44
2023-04-19T19:41:55.254Z,9.48
2023-04-19T19:44:00.597Z,9.49
2023-04-19T19:46:30.957Z,9.52
2023-04-19T19:48:59.827Z,9.50
2023-04-19T19:51:53.411Z,9.58
2023-04-19T19:54:17.678Z,9.58
2023-04-19T19:57:21.758Z,9.57
2023-04-19T19:59:39.321Z,9.64
2023-04-19T20:02:08.453Z,8.94
2023-04-19T20:04:43.293Z,9.66
2023-04-19T20:09:45.945Z,9.70
2023-04-19T20:12:16.754Z,9.64
2023-04-19T20:14:47.213Z,9.60
2023-04-19T20:17:20.494Z,9.45
2023-04-19T20:19:52.572Z,9.29
2023-04-19T20:22:22.772Z,9.60
2023-04-19T20:24:53.132Z,9.53
2023-04-19T20:27:22.077Z,9.50
2023-04-19T20:29:53.877Z,9.55
2023-04-19T20:32:22.783Z,9.47
2023-04-19T20:34:52.102Z,9.38
2023-04-19T20:37:22.984Z,9.31
2023-04-19T20:39:52.321Z,9.42
2023-04-19T20:42:21.428Z,9.26
2023-04-19T20:44:52.061Z,9.48
2023-04-19T20:47:22.061Z,9.60
2023-04-19T20:49:52.130Z,9.43
2023-04-19T20:52:21.179Z,9.64
2023-04-19T20:54:49.958Z,9.41
2023-04-19T20:57:19.006Z,9.68
2023-04-19T20:59:49.296Z,9.51
2023-04-19T21:02:20.083Z,9.38
2023-04-19T21:04:49.685Z,9.19
2023-04-19T21:07:18.643Z,9.31
2023-04-19T21:09:47.344Z,9.32
2023-04-19T21:12:16.268Z,9.43
2023-04-19T21:14:48.499Z,9.35
2023-04-19T21:17:19.893Z,9.49
2023-04-19T21:19:49.004Z,9.40
2023-04-19T21:22:17.896Z,9.12
2023-04-19T21:24:46.683Z,9.30
2023-04-19T21:27:16.090Z,9.31
2023-04-19T21:29:46.145Z,9.27
2023-04-19T21:32:15.023Z,9.14
2023-04-19T21:34:48.491Z,8.99
2023-04-19T21:37:19.115Z,8.87
2023-04-19T21:39:48.180Z,8.90
2023-04-19T21:42:17.046Z,8.86
2023-04-19T21:44:46.153Z,8.96
2023-04-19T21:47:18.424Z,8.86
2023-04-19T21:49:49.221Z,8.06
2023-04-19T21:52:18.113Z,8.88
2023-04-19T21:54:49.304Z,8.98
2023-04-19T21:57:22.579Z,8.82
2023-04-19T21:59:51.785Z,8.91
2023-04-19T22:02:20.957Z,8.90
2023-04-19T22:05:02.462Z,8.79
2023-04-19T22:07:32.523Z,8.72
2023-04-19T22:10:04.301Z,8.61
2023-04-19T22:12:40.637Z,8.87
2023-04-19T22:15:14.503Z,8.83
2023-04-19T22:17:44.888Z,8.75
2023-04-19T22:20:16.113Z,8.88
2023-04-19T22:22:45.792Z,8.87
2023-04-19T22:25:15.072Z,8.80
2023-04-19T22:27:44.102Z,8.85
2023-04-19T22:30:13.621Z,8.80
2023-04-19T22:32:43.247Z,8.80
2023-04-19T22:35:12.339Z,8.82
2023-04-19T22:37:42.828Z,8.80
2023-04-19T22:40:12.833Z,8.87
2023-04-19T22:42:41.864Z,8.87
2023-04-19T22:45:12.168Z,8.83
2023-04-19T22:47:41.272Z,8.79
2023-04-19T22:50:11.778Z,8.48
2023-04-19T22:52:42.946Z,8.29
2023-04-19T22:55:12.526Z,8.29
2023-04-19T22:57:41.806Z,7.91
2023-04-19T23:00:12.158Z,8.29
2023-04-19T23:02:41.321Z,8.20
2023-04-19T23:05:11.611Z,8.10
2023-04-19T23:07:43.494Z,7.96
2023-04-19T23:10:12.764Z,8.06
2023-04-19T23:12:41.603Z,8.01
2023-04-19T23:15:11.607Z,8.01
2023-04-19T23:17:41.057Z,7.99
2023-04-19T23:20:11.860Z,8.00
2023-04-19T23:22:42.504Z,8.01
2023-04-19T23:25:12.191Z,8.05
2023-04-19T23:27:41.249Z,8.04
2023-04-19T23:30:10.903Z,8.11
2023-04-19T23:32:39.830Z,8.20
2023-04-19T23:35:09.362Z,8.25
2023-04-19T23:37:38.342Z,8.26
2023-04-19T23:40:10.740Z,8.21
2023-04-19T23:42:40.050Z,8.18
2023-04-19T23:45:09.492Z,8.08
2023-04-19T23:47:38.564Z,8.09
2023-04-19T23:50:08.431Z,7.99
2023-04-19T23:52:37.481Z,8.18
2023-04-19T23:55:08.337Z,8.12
2023-04-19T23:57:37.284Z,8.24
